Archival Weather

Alykel

Alykel, Russia (UOOO)

Report from: Tuesday, November 21, 2023 10:30 PM UTC
Current time: Friday, July 19, 2024 2:40 AM UTC

Current weather – Weather history – Daily summaries
Weather forecast

Present weatherLight snow, drifting snow
Temperature-26.0°C (-14.8°F)
Wind chill-38.5°C (-37.2°F)
Dew point-29.0°C (-20.2°F)
Winds 11.7 kts (6 m/s, 13.4 mph) South (170°)
Visibility6.2 mi. (10 km)
Clouds Ceiling: Broken clouds 4,600 ft. (1,402 m)
Altimeter30.39 in.Hg (1029 mB)
Precip. events QF 9:35 AM
Relative humidity76 %
Density altitude-5,861 ft. (-1,786 m)
Remarks No significant changes expected in the next two hours
Flight conditions Visual Meteorological Conditions
Raw dataUOOO 212230Z 17006MPS 9999 -SN DRSN BKN046 M26/M29 Q1029 R19/35//60 NOSIG RMK QFE755/1007
An error has occurred. This application may no longer respond until reloaded. Reload 🗙